createdAt,value
2018-08-19T00:02:23.243Z,16.29
2018-08-19T00:05:06.017Z,16.22
2018-08-19T00:07:35.191Z,16.29
2018-08-19T00:10:04.202Z,16.29
2018-08-19T00:12:39.530Z,16.24
2018-08-19T00:15:08.143Z,16.21
2018-08-19T00:17:36.631Z,16.15
2018-08-19T00:20:07.863Z,16.15
2018-08-19T00:22:36.368Z,16.14
2018-08-19T00:25:05.630Z,16.10
2018-08-19T00:27:37.203Z,16.10
2018-08-19T00:30:08.273Z,15.97
2018-08-19T00:32:36.772Z,15.96
2018-08-19T00:35:05.883Z,15.96
2018-08-19T00:37:34.720Z,15.98
2018-08-19T00:40:10.301Z,16.01
2018-08-19T00:42:38.899Z,15.93
2018-08-19T00:45:07.955Z,15.83
2018-08-19T00:47:36.637Z,15.73
2018-08-19T00:50:05.579Z,15.73
2018-08-19T00:52:34.892Z,15.67
2018-08-19T00:55:03.724Z,15.74
2018-08-19T00:57:32.865Z,15.68
2018-08-19T01:00:01.640Z,15.65
2018-08-19T01:02:30.571Z,15.72
2018-08-19T01:04:59.076Z,15.60
2018-08-19T01:07:28.092Z,15.68
2018-08-19T01:09:56.796Z,15.61
2018-08-19T01:12:25.630Z,15.53
2018-08-19T01:14:54.240Z,15.42
2018-08-19T01:17:27.378Z,15.51
2018-08-19T01:20:00.003Z,15.53
2018-08-19T01:22:29.041Z,15.59
2018-08-19T01:25:56.796Z,15.41
2018-08-19T01:28:25.416Z,15.39
2018-08-19T01:30:54.328Z,15.35
2018-08-19T01:33:23.047Z,15.34
2018-08-19T01:35:51.761Z,15.28
2018-08-19T01:38:20.621Z,15.29
2018-08-19T01:40:49.324Z,15.26
2018-08-19T01:43:17.992Z,15.25
2018-08-19T01:45:46.508Z,15.31
2018-08-19T01:48:15.347Z,15.20
2018-08-19T01:50:43.864Z,15.19
2018-08-19T01:53:12.488Z,15.17
2018-08-19T01:55:41.122Z,15.12
2018-08-19T01:58:09.908Z,15.21
2018-08-19T02:00:38.648Z,15.29
2018-08-19T02:03:07.480Z,15.22
2018-08-19T02:05:36.583Z,15.24
2018-08-19T02:08:05.903Z,15.09
2018-08-19T02:10:35.101Z,15.09
2018-08-19T02:13:03.763Z,15.15
2018-08-19T02:15:32.995Z,15.11
2018-08-19T02:18:02.896Z,15.02
2018-08-19T02:20:38.603Z,15.06
2018-08-19T02:23:08.883Z,15.03
2018-08-19T02:25:43.844Z,15.17
2018-08-19T02:29:28.040Z,15.12
2018-08-19T02:31:59.518Z,14.99
2018-08-19T02:34:31.705Z,14.87
2018-08-19T02:37:07.323Z,14.90
2018-08-19T02:39:38.098Z,14.93
2018-08-19T02:42:17.474Z,14.91
2018-08-19T02:44:46.305Z,14.92
2018-08-19T02:47:14.832Z,14.75
2018-08-19T02:49:43.673Z,14.80
2018-08-19T02:52:39.338Z,14.92
2018-08-19T02:55:08.643Z,14.79
2018-08-19T02:57:40.045Z,14.88
2018-08-19T03:00:11.048Z,14.81
2018-08-19T03:02:41.064Z,14.77
2018-08-19T03:05:14.656Z,14.89
2018-08-19T03:07:44.555Z,14.88
2018-08-19T03:10:14.737Z,14.74
2018-08-19T03:12:43.970Z,14.78
2018-08-19T03:15:13.639Z,14.70
2018-08-19T03:17:43.044Z,14.86
2018-08-19T03:20:13.576Z,14.76
2018-08-19T03:22:42.432Z,14.72
2018-08-19T03:25:11.533Z,14.63
2018-08-19T03:27:40.144Z,14.66
2018-08-19T03:30:12.207Z,14.57
2018-08-19T03:32:46.568Z,14.51
2018-08-19T03:35:18.493Z,14.49
2018-08-19T03:37:48.042Z,14.54
2018-08-19T03:40:16.620Z,14.40
2018-08-19T03:42:45.702Z,14.47
2018-08-19T03:45:18.654Z,14.40
2018-08-19T03:47:47.944Z,14.48
2018-08-19T03:50:26.906Z,14.44
2018-08-19T03:52:56.731Z,14.33
2018-08-19T03:55:29.355Z,14.25
2018-08-19T03:58:09.080Z,14.36
2018-08-19T04:03:39.800Z,14.46
2018-08-19T04:06:08.325Z,14.33
2018-08-19T04:08:47.341Z,14.30
2018-08-19T04:11:15.945Z,14.43
2018-08-19T04:13:44.412Z,14.50
2018-08-19T04:16:13.334Z,14.55
2018-08-19T04:18:43.928Z,14.53
2018-08-19T04:21:13.789Z,14.54
2018-08-19T04:23:44.844Z,14.59
2018-08-19T04:26:13.417Z,14.67
2018-08-19T04:28:43.515Z,14.67
2018-08-19T04:31:17.166Z,14.75
2018-08-19T04:33:47.196Z,14.74
2018-08-19T04:36:17.377Z,14.78
2018-08-19T04:38:45.967Z,14.89
2018-08-19T04:41:21.328Z,14.83
2018-08-19T04:43:50.378Z,14.95
2018-08-19T04:46:19.097Z,15.06
2018-08-19T04:48:48.571Z,15.08
2018-08-19T04:51:17.088Z,15.11
2018-08-19T04:53:45.884Z,15.24
2018-08-19T04:56:14.488Z,15.39
2018-08-19T04:58:42.975Z,15.42
2018-08-19T05:01:13.525Z,15.58
2018-08-19T05:03:44.325Z,15.67
2018-08-19T05:06:12.930Z,15.72
2018-08-19T05:08:41.479Z,16.01
2018-08-19T05:11:10.031Z,16.24
2018-08-19T05:13:38.672Z,16.43
2018-08-19T05:16:07.400Z,16.61
2018-08-19T05:18:36.014Z,16.67
2018-08-19T05:21:10.092Z,16.61
2018-08-19T05:23:38.912Z,16.70
2018-08-19T05:26:07.472Z,16.74
2018-08-19T05:28:35.999Z,16.91
2018-08-19T05:31:04.829Z,17.19
2018-08-19T05:33:33.709Z,17.34
2018-08-19T05:36:02.628Z,17.40
2018-08-19T05:38:32.401Z,17.41
2018-08-19T05:41:02.024Z,17.34
2018-08-19T05:43:31.379Z,17.26
2018-08-19T05:46:01.058Z,17.47
2018-08-19T05:48:30.136Z,17.76
2018-08-19T05:51:02.161Z,17.97
2018-08-19T05:53:30.697Z,17.85
2018-08-19T05:55:59.471Z,17.86
2018-08-19T05:58:28.142Z,17.83
2018-08-19T06:01:01.289Z,18.08
2018-08-19T06:03:34.598Z,17.99
2018-08-19T06:06:03.476Z,18.13
2018-08-19T06:08:32.488Z,18.30
2018-08-19T06:11:01.314Z,18.49
2018-08-19T06:13:30.148Z,18.68
2018-08-19T06:15:59.041Z,18.94
2018-08-19T06:18:27.652Z,18.99
2018-08-19T06:20:56.944Z,19.04
2018-08-19T06:23:25.645Z,19.19
2018-08-19T06:25:54.219Z,19.33
2018-08-19T06:28:24.365Z,19.38
2018-08-19T06:31:55.723Z,19.48
2018-08-19T06:34:24.756Z,19.83
2018-08-19T06:36:53.350Z,19.89
2018-08-19T06:39:22.375Z,19.99
2018-08-19T06:41:51.234Z,20.19
2018-08-19T06:44:20.056Z,20.18
2018-08-19T06:46:49.128Z,20.39
2018-08-19T06:49:20.312Z,20.61
2018-08-19T06:51:49.813Z,20.68
2018-08-19T06:54:18.463Z,20.71
2018-08-19T06:56:47.363Z,20.93
2018-08-19T06:59:17.419Z,20.90
2018-08-19T07:01:46.516Z,20.75
2018-08-19T07:04:15.950Z,21.06
2018-08-19T07:06:44.902Z,21.30
2018-08-19T07:09:13.440Z,21.29
2018-08-19T07:11:58.046Z,21.41
2018-08-19T07:14:28.310Z,21.50
2018-08-19T07:16:57.257Z,21.66
2018-08-19T07:19:26.136Z,21.76
2018-08-19T07:22:00.144Z,21.93
2018-08-19T07:24:30.670Z,22.04
2018-08-19T07:26:59.488Z,22.04
2018-08-19T07:29:29.696Z,22.10
2018-08-19T07:31:58.659Z,22.16
2018-08-19T07:34:29.025Z,22.37
2018-08-19T07:36:58.984Z,22.23
2018-08-19T07:39:28.787Z,22.36
2018-08-19T07:41:59.816Z,22.47
2018-08-19T07:44:28.483Z,22.58
2018-08-19T07:46:57.387Z,22.77
2018-08-19T07:49:28.571Z,22.83
2018-08-19T07:51:58.392Z,22.81
2018-08-19T07:54:29.018Z,22.84
2018-08-19T07:56:58.428Z,22.90
2018-08-19T07:59:34.900Z,22.97
2018-08-19T08:02:04.469Z,23.11
2018-08-19T08:04:39.444Z,23.02
2018-08-19T08:07:09.529Z,23.33
2018-08-19T08:09:39.112Z,23.32
2018-08-19T08:12:09.785Z,23.64
2018-08-19T08:14:39.633Z,23.59
2018-08-19T08:17:09.988Z,23.49
2018-08-19T08:19:41.738Z,23.69
2018-08-19T08:22:17.353Z,23.88
2018-08-19T08:24:45.885Z,24.03
2018-08-19T08:27:16.164Z,24.01
2018-08-19T08:29:45.706Z,24.06
2018-08-19T08:32:14.672Z,24.20
2018-08-19T08:34:43.869Z,24.06
2018-08-19T08:37:13.445Z,24.16
2018-08-19T08:39:42.672Z,24.45
2018-08-19T08:42:20.127Z,24.48
2018-08-19T08:44:49.168Z,24.64
2018-08-19T08:47:19.113Z,24.28
2018-08-19T08:49:48.248Z,24.49
2018-08-19T08:52:24.377Z,24.64
2018-08-19T08:54:54.571Z,24.79
2018-08-19T08:57:24.513Z,24.82
2018-08-19T08:59:54.161Z,24.93
2018-08-19T09:02:23.289Z,24.83
2018-08-19T09:04:53.871Z,24.84
2018-08-19T09:07:30.904Z,25.04
2018-08-19T09:09:59.529Z,24.83
2018-08-19T09:12:39.527Z,25.07
2018-08-19T09:15:09.529Z,25.22
2018-08-19T09:17:38.841Z,25.20
2018-08-19T09:20:09.591Z,25.67
2018-08-19T09:22:40.521Z,25.42
2018-08-19T09:25:11.393Z,25.74
2018-08-19T09:27:40.868Z,25.70
2018-08-19T09:30:14.127Z,25.57
2018-08-19T09:32:56.880Z,25.61
2018-08-19T09:35:29.541Z,25.89
2018-08-19T09:38:04.844Z,25.88
2018-08-19T09:40:35.501Z,25.80
2018-08-19T09:43:06.572Z,25.99
2018-08-19T09:45:36.380Z,26.05
2018-08-19T09:48:06.692Z,26.25
2018-08-19T09:50:36.732Z,26.34
2018-08-19T09:53:05.641Z,26.06
2018-08-19T09:55:44.135Z,26.29
2018-08-19T09:58:17.180Z,26.19
2018-08-19T10:00:52.775Z,26.08
2018-08-19T10:03:24.197Z,26.05
2018-08-19T10:05:53.222Z,26.29
2018-08-19T10:08:23.824Z,26.00
2018-08-19T10:10:52.888Z,26.36
2018-08-19T10:13:22.302Z,26.21
2018-08-19T10:15:53.072Z,26.53
2018-08-19T10:18:22.693Z,26.79
2018-08-19T10:20:52.705Z,27.01
2018-08-19T10:23:25.549Z,27.14
2018-08-19T10:25:54.795Z,26.80
2018-08-19T10:28:23.431Z,27.12
2018-08-19T10:30:57.025Z,27.07
2018-08-19T10:33:26.269Z,26.89
2018-08-19T10:35:58.033Z,27.13
2018-08-19T10:38:26.812Z,27.28
2018-08-19T10:41:03.597Z,27.47
2018-08-19T10:43:33.393Z,27.69
2018-08-19T10:46:03.052Z,27.95
2018-08-19T10:48:32.440Z,29.00
2018-08-19T10:51:04.083Z,28.74
2018-08-19T10:53:32.588Z,29.47
2018-08-19T10:56:02.812Z,29.08
2018-08-19T10:58:31.977Z,28.25
2018-08-19T11:01:02.572Z,29.73
2018-08-19T11:03:32.335Z,30.56
2018-08-19T11:06:01.419Z,31.29
2018-08-19T11:08:30.483Z,31.07
2018-08-19T11:11:00.372Z,31.60
2018-08-19T11:13:31.707Z,31.92
2018-08-19T11:16:02.366Z,31.46
2018-08-19T11:18:43.952Z,31.75
2018-08-19T11:21:18.907Z,32.33
2018-08-19T11:23:50.021Z,31.99
2018-08-19T11:26:18.681Z,32.37
2018-08-19T11:28:50.663Z,32.48
2018-08-19T11:31:26.326Z,33.30
2018-08-19T11:33:57.495Z,32.07
2018-08-19T11:36:32.461Z,32.54
2018-08-19T11:39:01.196Z,33.05
2018-08-19T11:41:32.417Z,32.86
2018-08-19T11:44:05.567Z,33.24
2018-08-19T11:46:34.159Z,33.69
2018-08-19T11:49:08.449Z,33.16
2018-08-19T11:51:58.841Z,33.16
2018-08-19T11:54:28.732Z,34.51
2018-08-19T11:57:03.798Z,33.57
2018-08-19T11:59:36.383Z,34.06
2018-08-19T12:02:06.762Z,33.38
2018-08-19T12:04:35.572Z,33.53
2018-08-19T12:07:04.612Z,33.86
2018-08-19T12:09:33.381Z,33.83
2018-08-19T12:12:03.033Z,34.47
2018-08-19T12:14:35.138Z,33.52
2018-08-19T12:17:07.700Z,34.09
2018-08-19T12:19:39.013Z,34.05
2018-08-19T12:22:08.323Z,34.68
2018-08-19T12:24:42.977Z,34.55
2018-08-19T12:27:14.105Z,32.20
2018-08-19T12:29:43.556Z,32.86
2018-08-19T12:32:19.844Z,34.24
2018-08-19T12:34:50.745Z,34.68
2018-08-19T12:37:21.365Z,33.94
2018-08-19T12:39:51.382Z,34.03
2018-08-19T12:42:20.047Z,33.86
2018-08-19T12:44:50.666Z,34.89
2018-08-19T12:47:25.315Z,34.94
2018-08-19T12:49:56.728Z,34.81
2018-08-19T12:52:26.904Z,35.46
2018-08-19T12:55:03.556Z,34.66
2018-08-19T12:57:33.183Z,33.21
2018-08-19T13:00:08.809Z,34.98
2018-08-19T13:02:41.915Z,33.05
2018-08-19T13:05:11.085Z,35.91
2018-08-19T13:07:39.711Z,35.81
2018-08-19T13:10:10.552Z,36.25
2018-08-19T13:12:54.816Z,36.05
2018-08-19T13:15:24.618Z,36.89
2018-08-19T13:17:53.483Z,37.22
2018-08-19T13:20:22.101Z,36.30
2018-08-19T13:23:06.533Z,36.25
2018-08-19T13:25:35.287Z,37.42
2018-08-19T13:28:04.454Z,37.43
2018-08-19T13:30:33.255Z,38.06
2018-08-19T13:33:02.572Z,37.61
2018-08-19T13:35:31.609Z,38.09
2018-08-19T13:38:00.205Z,37.56
2018-08-19T13:40:28.879Z,37.67
2018-08-19T13:42:57.549Z,38.26
2018-08-19T13:45:27.653Z,39.19
2018-08-19T13:47:56.582Z,37.95
2018-08-19T13:50:25.442Z,38.21
2018-08-19T13:52:54.150Z,39.46
2018-08-19T13:55:23.400Z,39.05
2018-08-19T13:57:51.930Z,37.96
2018-08-19T14:00:22.384Z,38.29
2018-08-19T14:02:51.523Z,37.84
2018-08-19T14:05:20.819Z,36.87
2018-08-19T14:07:49.353Z,38.49
2018-08-19T14:10:18.201Z,37.39
2018-08-19T14:12:46.712Z,37.79
2018-08-19T14:15:15.595Z,38.30
2018-08-19T14:17:44.293Z,36.98
2018-08-19T14:20:13.131Z,36.73
2018-08-19T14:22:41.849Z,37.30
2018-08-19T14:25:11.758Z,38.84
2018-08-19T14:27:40.564Z,38.63
2018-08-19T14:30:11.013Z,38.10
2018-08-19T14:32:40.641Z,37.70
2018-08-19T14:35:09.601Z,35.59
2018-08-19T14:37:38.469Z,33.48
2018-08-19T14:40:10.659Z,32.56
2018-08-19T14:42:39.303Z,33.14
2018-08-19T14:45:08.184Z,32.61
2018-08-19T14:47:37.344Z,32.01
2018-08-19T14:50:14.854Z,31.71
2018-08-19T14:52:43.807Z,32.05
2018-08-19T14:55:12.575Z,31.80
2018-08-19T14:57:41.106Z,31.68
2018-08-19T15:00:14.071Z,31.49
2018-08-19T15:02:43.943Z,31.39
2018-08-19T15:05:19.148Z,31.51
2018-08-19T15:07:48.209Z,31.09
2018-08-19T15:10:18.141Z,30.95
2018-08-19T15:12:46.689Z,30.76
2018-08-19T15:15:15.257Z,30.85
2018-08-19T15:17:50.977Z,30.87
2018-08-19T15:20:36.741Z,30.86
2018-08-19T15:23:17.471Z,30.61
2018-08-19T15:25:46.499Z,30.66
2018-08-19T15:28:15.963Z,30.38
2018-08-19T15:30:45.192Z,30.31
2018-08-19T15:33:15.907Z,30.45
2018-08-19T15:35:45.338Z,30.36
2018-08-19T15:38:15.242Z,30.13
2018-08-19T15:40:47.997Z,30.18
2018-08-19T15:43:16.523Z,30.04
2018-08-19T15:45:45.694Z,30.10
2018-08-19T15:48:15.666Z,30.03
2018-08-19T15:50:44.376Z,30.15
2018-08-19T15:53:13.770Z,30.06
2018-08-19T15:55:42.595Z,29.99
2018-08-19T15:58:11.935Z,29.83
2018-08-19T16:00:42.397Z,29.59
2018-08-19T16:03:12.482Z,29.68
2018-08-19T16:05:41.788Z,29.54
2018-08-19T16:08:11.533Z,29.63
2018-08-19T16:10:40.698Z,29.64
2018-08-19T16:13:11.512Z,29.47
2018-08-19T16:15:40.322Z,29.56
2018-08-19T16:18:09.377Z,29.53
2018-08-19T16:20:38.689Z,29.40
2018-08-19T16:23:07.501Z,29.31
2018-08-19T16:25:36.552Z,29.35
2018-08-19T16:28:06.604Z,29.18
2018-08-19T16:30:35.569Z,29.00
2018-08-19T16:33:06.166Z,28.80
2018-08-19T16:35:35.082Z,28.72
2018-08-19T16:38:03.624Z,28.58
2018-08-19T16:40:32.390Z,28.65
2018-08-19T16:43:01.557Z,28.59
2018-08-19T16:45:31.942Z,28.59
2018-08-19T16:48:00.412Z,28.52
2018-08-19T16:50:29.766Z,28.55
2018-08-19T16:52:58.819Z,28.46
2018-08-19T16:55:28.228Z,28.13
2018-08-19T16:57:57.046Z,28.22
2018-08-19T17:00:26.747Z,28.22
2018-08-19T17:02:55.804Z,27.87
2018-08-19T17:05:32.510Z,27.74
2018-08-19T17:08:02.625Z,27.77
2018-08-19T17:10:31.492Z,27.57
2018-08-19T17:13:02.479Z,27.46
2018-08-19T17:15:31.302Z,27.49
2018-08-19T17:18:00.517Z,27.28
2018-08-19T17:20:29.146Z,27.20
2018-08-19T17:22:58.031Z,27.16
2018-08-19T17:25:26.787Z,27.05
2018-08-19T17:27:55.281Z,26.95
2018-08-19T17:30:24.707Z,26.92
2018-08-19T17:33:00.758Z,26.86
2018-08-19T17:35:29.929Z,26.62
2018-08-19T17:37:58.851Z,26.52
2018-08-19T17:40:27.992Z,26.35
2018-08-19T17:42:57.247Z,26.30
2018-08-19T17:45:26.006Z,26.12
2018-08-19T17:47:55.383Z,25.99
2018-08-19T17:50:30.093Z,25.85
2018-08-19T17:53:01.279Z,25.73
2018-08-19T17:55:30.467Z,25.55
2018-08-19T17:58:00.852Z,25.45
2018-08-19T18:00:29.804Z,25.38
2018-08-19T18:02:58.714Z,25.33
2018-08-19T18:05:30.435Z,25.28
2018-08-19T18:08:00.576Z,25.17
2018-08-19T18:10:29.592Z,24.94
2018-08-19T18:12:58.821Z,24.82
2018-08-19T18:15:28.883Z,24.68
2018-08-19T18:18:03.307Z,24.58
2018-08-19T18:20:34.704Z,24.47
2018-08-19T18:23:04.784Z,24.44
2018-08-19T18:25:33.428Z,24.29
2018-08-19T18:28:10.920Z,24.14
2018-08-19T18:30:41.144Z,24.02
2018-08-19T18:33:10.299Z,23.97
2018-08-19T18:35:39.761Z,23.86
2018-08-19T18:38:19.882Z,23.69
2018-08-19T18:40:50.283Z,23.60
2018-08-19T18:43:20.828Z,23.49
2018-08-19T18:45:51.029Z,23.38
2018-08-19T18:48:20.858Z,23.35
2018-08-19T18:50:53.280Z,23.28
2018-08-19T18:53:22.318Z,23.17
2018-08-19T18:55:51.221Z,23.01
2018-08-19T18:58:20.781Z,22.92
2018-08-19T19:01:05.180Z,22.89
2018-08-19T19:03:34.436Z,22.82
2018-08-19T19:06:03.500Z,22.68
2018-08-19T19:08:33.633Z,22.68
2018-08-19T19:11:06.083Z,22.56
2018-08-19T19:13:35.829Z,22.47
2018-08-19T19:16:05.290Z,22.35
2018-08-19T19:18:34.496Z,22.29
2018-08-19T19:21:04.246Z,22.22
2018-08-19T19:23:41.167Z,22.13
2018-08-19T19:26:10.805Z,22.02
2018-08-19T19:28:39.567Z,21.96
2018-08-19T19:31:12.421Z,21.91
2018-08-19T19:33:41.082Z,21.80
2018-08-19T19:36:15.606Z,21.77
2018-08-19T19:38:48.937Z,21.72
2018-08-19T19:41:22.364Z,21.63
2018-08-19T19:43:51.527Z,21.52
2018-08-19T19:46:22.101Z,21.44
2018-08-19T19:48:52.001Z,21.28
2018-08-19T19:51:21.307Z,21.25
2018-08-19T19:53:50.571Z,21.14
2018-08-19T19:56:20.203Z,21.09
2018-08-19T19:58:50.378Z,21.10
